Aérodrome :
LOGIN :

S'inscrire | Disclaimer

   EN    FR    IT 

 










Légende :    VFR   VFR Marginal   IFR   IFR Intensif   IFR Très Intensif
Visi : 
Plafond : 
>= 8 km
>= 3000ft
5 à 8 km
1000 à 3000 ft
1500m à 5 km
500 à 1000 ft
800 à 1500m
200 à 500 ft
< 800m
< 200 ft
Symboles :   Orages  Brouillard  Fortes neiges  Fortes précipitations  Vent > 20 kt
SIGMETs :   Divers  Orages  Givrage  Turbulence  Onde Orograph.  Cendres Volcan.






- Altitude de l'aérodrome : 17 ft
- Code IATA : GRQ


EHGG - Groningen Eelde

DERNIER METAR :
  • 250855Z AUTO 07005KT 030V110 9999 NCD 23/18 Q1017 NOSIG

METARs EXPIRÉS :
  • 250825Z AUTO 04005KT 360V080 9999 NCD 22/17 Q1017 NOSIG
  • 250755Z AUTO 06004KT 010V110 9999 NCD 22/17 Q1017 NOSIG
  • 250725Z AUTO 09004KT 060V130 9999 NCD 21/16 Q1018 NOSIG
  • 250655Z AUTO 05004KT 360V080 9999 NCD 20/16 Q1018 NOSIG
  • 250625Z AUTO 06005KT 020V090 9999 NCD 19/16 Q1018 NOSIG
  • 250555Z AUTO 06006KT 9999 NCD 18/16 Q1018 NOSIG
  • 250525Z AUTO 06006KT 9999 NCD 17/15 Q1018 NOSIG
  • 250455Z AUTO 06005KT 9999 NCD 16/15 Q1018 NOSIG
  • 250425Z AUTO 06005KT 8000 NCD 15/14 Q1018

TAF TAF EHGG
Valide du 25 à 06h jusqu'au 26 à 12h UTC


250518Z 2506/2612 07007KT CAVOK



MET'MAP, la Météo Aéronautique d'un coup d'oeil ! - Copyright ORBIFLY Décembre 2007 - Disclaimer

ORBIFLY MET'MAP TEAM :

Programmation & Développement : Alexandra Zaïnal
Sur une idée originale de : Baudouin d'Aumeries
Soutien technique & logistique : Manuel Goepfert
Assistance : Marc-Olivier Méhu




SOURCES & CREDITS :

   NOAA